Terminal Aerodrome Forecast
Issued by NWS

Home | Current Version | Previous Version | Graphics & Text | Print | Product List | Glossary On
Versions: 1 2 3 4 5 6 7 8 9 10 11 12 13 14 15 16 17 18
000
FTUS41 KCLE 300500
TAFFDY
TAF
KFDY 300521Z 3006/3106 23005KT P6SM BKN100
     FM301300 23008KT P6SM BKN070
     FM301800 26010KT P6SM OVC035
      TEMPO 3019/3022 4SM SHRA OVC025
     FM302300 27006KT P6SM BKN070=

USA.gov is the U.S. government's official web portal to all federal, state and local government web resources and services.